Terminal Aerodrome Forecast
Issued by NWS Melbourne, FL

Home | Current Version | Previous Version | Text Only | Print | Product List | Glossary On
Versions: 1 2 3 4 5 6 7 8 9 10 11 12 13 14
000
FTUS42 KMLB 311520 AAA
TAFVRB
TAF AMD
KVRB 311520Z 3115/0112 17011KT P6SM VCSH SCT025 BKN250
      TEMPO 3115/3118 5SM SHRA BKN015 BKN050
     FM311800 20013G20KT P6SM VCSH SCT030 OVC060
     FM010000 19008KT P6SM VCSH FEW010 SCT040 BKN100=

USA.gov is the U.S. government's official web portal to all federal, state and local government web resources and services.